Last 30 Days

AM-Roundhouse Btm 6950'

Daily Data | America/Los_Angeles
as of 6/24/24 8:04 PM PDT
Date Daily Max Temp (°F) Time of Max Temp Daily Min Temp (°F) Time of Min Temp Wind Spd (mph) Daily Max Wind (mph) Max Wind Dir (°) Time of Max Wind Daily Rain (In) Season Precip (In) SnowDepth (in) Max RH (%) Min RH (%) Wet Bulb (°F) WetB Hrs <28F (hrs) Min Press (inHg) Time of Min Press MinBV Day (V)
6/23/24 73.4 1301 58.4 0249 4.5 22.2 SSE | 160 1546 0.03 42.53 0.4 57 28 51.0 0.0 30.16 2010 13.1
6/22/24 77.5 1222 55.8 0621 3.7 21.2 SSE | 154 1901 0.00 42.50 0.0 57 18 51.3 0.0 30.13 0050 13.1
6/21/24 75.9 1625 51.7 0652 2.5 13.1 N | 350 1038 0.00 42.50 0.1 60 15 48.6 0.0 30.06 0335 13.0
6/20/24 69.9 1350 46.3 0623 2.5 13.9 NNW | 341 0956 0.00 42.50 0.3 59 16 45.8 0.0 30.04 1835 13.0
6/19/24 65.2 1714 40.7 0546 2.5 14.2 S | 175 1337 0.00 42.50 0.4 58 20 41.3 0.0 30.01 0435 13.0
6/18/24 59.0 1419 36.6 0534 2.4 15.5 SSE | 149 1440 0.00 42.50 0.7 51 13 35.8 0.0 29.98 0555 13.0
6/17/24 54.4 1731 40.2 2352 3.7 21.4 SE | 144 0126 0.00 42.50 1.3 78 10 36.6 0.0 29.90 0355 13.0
6/16/24 62.1 1326 45.2 0554 3.7 20.3 SE | 135 1721 0.00 42.50 0.5 57 14 40.0 0.0 29.94 2340 13.0
6/15/24 63.5 1502 47.6 0212 4.5 21.6 SSE | 163 1309 0.00 42.50 1.5 48 13 40.5 0.0 30.08 2055 13.0
6/14/24 67.6 1207 52.2 2339 4.9 30.1 ESE | 122 1842 0.00 42.50 0.4 60 16 44.2 0.0 30.12 1735 13.0
6/13/24 74.6 1305 54.5 2359 3.5 17.5 SSE | 149 1631 0.00 42.50 0.0 65 23 51.6 0.0 30.13 0410 13.1
6/12/24 76.1 1427 54.7 0544 3.3 17.4 NE | 50 1336 0.00 42.50 0.3 66 21 50.4 0.0 30.14 1945 13.0
6/11/24 76.5 1315 53.5 0604 3.0 16.3 SE | 138 1542 0.00 42.50 0.0 77 19 51.7 0.0 30.17 1645 13.0
6/10/24 74.7 1422 48.5 0556 2.5 15.8 SSE | 148 1723 0.00 42.50 0.0 70 30 50.5 0.0 30.15 1745 13.0
6/9/24 67.9 1241 49.3 0632 2.7 20.1 N | 1 1619 0.00 42.50 0.5 58 18 45.4 0.0 30.07 0345 13.0
6/8/24 70.7 1230 49.3 0641 3.5 15.5 SSE | 166 1613 0.00 42.50 0.0 64 13 45.4 0.0 30.08 1720 13.0
6/7/24 75.5 1220 53.4 0556 3.4 19.4 SE | 134 1341 0.00 42.50 0.6 57 20 48.5 0.0 30.10 1830 13.1
6/6/24 76.1 1317 56.7 2207 3.8 19.0 S | 179 1708 0.00 42.50 0.6 59 26 51.5 0.0 30.13 1940 13.1
6/5/24 77.3 1455 51.9 0516 2.9 14.6 S | 170 1820 0.00 42.50 0.1 71 28 51.9 0.0 30.18 0440 13.1
6/4/24 72.1 1654 43.3 0456 2.8 11.7 S | 180 1515 0.00 42.50 0.4 93 32 49.0 0.0 30.13 0025 13.0
6/3/24 56.1 0001 45.2 2330 4.5 25.6 SSE | 150 1621 0.00 42.50 0.2 86 57 46.2 0.0 30.04 0625 13.1
6/2/24 63.1 1408 46.4 0341 4.1 16.4 SSE | 163 1242 0.00 42.50 0.0 74 33 45.5 0.0 30.04 0345 13.1
6/1/24 62.3 1504 46.4 0638 3.3 19.7 S | 174 1410 0.00 42.50 0.1 67 29 44.6 0.0 30.05 1825 13.1
5/31/24 65.1 1423 43.5 0635 2.6 14.0 SSE | 164 1829 0.00 42.50 0.5 63 19 43.1 0.0 30.08 1610 13.1
5/30/24 64.8 1517 41.3 0625 2.8 9.4 N | 2 1647 0.00 42.50 0.2 69 20 42.2 0.0 30.13 2010 13.1
5/29/24 62.0 1525 40.6 0619 2.9 14.4 S | 172 1701 0.01 42.50 0.8 71 22 42.6 0.0 30.15 0330 13.2
5/28/24 60.7 1450 44.6 0625 4.2 21.6 SE | 136 1610 0.38 42.49 5.1 81 26 43.8 0.0 30.14 0630 13.0
5/27/24 64.5 1231 42.4 0558 2.9 12.7 S | 173 1725 0.00 42.11 8.5 77 32 44.5 0.0 30.12 0510 13.1
5/26/24 59.9 1315 35.2 0252 2.2 10.5 S | 175 1547 0.00 42.11 11.8 72 22 38.7 0.5 30.07 0001 13.1
5/25/24 47.9 1630 35.6 2359 4.2 24.1 SSE | 157 1511 0.00 42.11 14.4 86 42 36.9 0.0 29.93 0240 13.1
Max 77.5 - 58.4 - 4.9 30.1 - - 0.38 42.53 14.4 93 57 51.9 0.5 30.18 - 13.2
Avg - - - - 3.3 - - - - - - - - 45.3 - - - -
Min 47.9 - 35.2 - 2.2 9.4 - - 0.00 42.11 0.0 48 10 35.8 0.0 29.90 - 13.0